sensor_id;sensor_type;location;lat;lon;timestamp;P1;durP1;ratioP1;P2;durP2;ratioP2
11230;SDS011;5672;51.060;3.734;2022-08-19T00:00:16;26.63;;;23.73;;
11230;SDS011;5672;51.060;3.734;2022-08-19T00:02:43;26.17;;;23.37;;
11230;SDS011;5672;51.060;3.734;2022-08-19T00:05:09;27.23;;;24.50;;
11230;SDS011;5672;51.060;3.734;2022-08-19T00:07:36;26.57;;;23.67;;
11230;SDS011;5672;51.060;3.734;2022-08-19T00:10:04;26.17;;;23.37;;
11230;SDS011;5672;51.060;3.734;2022-08-19T00:12:30;28.13;;;25.10;;
11230;SDS011;5672;51.060;3.734;2022-08-19T00:14:56;27.30;;;23.97;;
11230;SDS011;5672;51.060;3.734;2022-08-19T00:17:22;29.00;;;25.90;;
11230;SDS011;5672;51.060;3.734;2022-08-19T00:19:48;28.87;;;25.93;;
11230;SDS011;5672;51.060;3.734;2022-08-19T00:22:15;27.30;;;24.57;;
11230;SDS011;5672;51.060;3.734;2022-08-19T00:24:42;27.60;;;24.63;;
11230;SDS011;5672;51.060;3.734;2022-08-19T00:27:08;27.00;;;24.00;;
11230;SDS011;5672;51.060;3.734;2022-08-19T00:29:34;30.03;;;26.83;;
11230;SDS011;5672;51.060;3.734;2022-08-19T00:32:01;28.17;;;25.33;;
11230;SDS011;5672;51.060;3.734;2022-08-19T00:34:27;29.90;;;24.40;;
11230;SDS011;5672;51.060;3.734;2022-08-19T00:36:53;28.03;;;24.57;;
11230;SDS011;5672;51.060;3.734;2022-08-19T00:39:19;29.47;;;24.47;;
11230;SDS011;5672;51.060;3.734;2022-08-19T00:41:46;26.07;;;23.27;;
11230;SDS011;5672;51.060;3.734;2022-08-19T00:44:19;29.50;;;24.57;;
11230;SDS011;5672;51.060;3.734;2022-08-19T00:46:46;26.50;;;23.70;;
11230;SDS011;5672;51.060;3.734;2022-08-19T00:51:42;26.47;;;22.70;;
11230;SDS011;5672;51.060;3.734;2022-08-19T00:54:10;27.63;;;23.10;;
11230;SDS011;5672;51.060;3.734;2022-08-19T00:56:37;26.00;;;23.17;;
11230;SDS011;5672;51.060;3.734;2022-08-19T00:59:03;25.30;;;22.20;;
11230;SDS011;5672;51.060;3.734;2022-08-19T01:01:33;27.00;;;22.37;;
11230;SDS011;5672;51.060;3.734;2022-08-19T01:03:59;24.87;;;22.27;;
11230;SDS011;5672;51.060;3.734;2022-08-19T01:06:26;24.83;;;22.30;;
11230;SDS011;5672;51.060;3.734;2022-08-19T01:08:52;27.47;;;21.73;;
11230;SDS011;5672;51.060;3.734;2022-08-19T01:11:19;24.73;;;21.93;;
11230;SDS011;5672;51.060;3.734;2022-08-19T01:13:45;25.30;;;22.60;;
11230;SDS011;5672;51.060;3.734;2022-08-19T01:16:11;24.33;;;21.73;;
11230;SDS011;5672;51.060;3.734;2022-08-19T01:18:39;23.50;;;21.00;;
11230;SDS011;5672;51.060;3.734;2022-08-19T01:21:08;25.70;;;20.77;;
11230;SDS011;5672;51.060;3.734;2022-08-19T01:23:35;24.57;;;20.70;;
11230;SDS011;5672;51.060;3.734;2022-08-19T01:26:14;23.37;;;20.17;;
11230;SDS011;5672;51.060;3.734;2022-08-19T01:28:41;22.77;;;20.47;;
11230;SDS011;5672;51.060;3.734;2022-08-19T01:31:09;23.00;;;19.20;;
11230;SDS011;5672;51.060;3.734;2022-08-19T01:33:36;22.13;;;19.73;;
11230;SDS011;5672;51.060;3.734;2022-08-19T01:36:03;21.70;;;19.37;;
11230;SDS011;5672;51.060;3.734;2022-08-19T01:38:29;20.50;;;18.30;;
11230;SDS011;5672;51.060;3.734;2022-08-19T01:40:56;20.53;;;18.10;;
11230;SDS011;5672;51.060;3.734;2022-08-19T01:43:23;21.10;;;18.90;;
11230;SDS011;5672;51.060;3.734;2022-08-19T01:45:49;21.47;;;18.50;;
11230;SDS011;5672;51.060;3.734;2022-08-19T01:48:15;20.27;;;18.20;;
11230;SDS011;5672;51.060;3.734;2022-08-19T01:50:41;20.40;;;17.20;;
11230;SDS011;5672;51.060;3.734;2022-08-19T01:53:09;20.53;;;17.30;;
11230;SDS011;5672;51.060;3.734;2022-08-19T01:55:37;20.27;;;18.07;;
11230;SDS011;5672;51.060;3.734;2022-08-19T01:58:04;20.07;;;17.00;;
11230;SDS011;5672;51.060;3.734;2022-08-19T02:00:31;19.10;;;17.10;;
11230;SDS011;5672;51.060;3.734;2022-08-19T02:02:57;22.67;;;18.83;;
11230;SDS011;5672;51.060;3.734;2022-08-19T02:05:24;18.70;;;16.70;;
11230;SDS011;5672;51.060;3.734;2022-08-19T02:07:50;18.70;;;15.80;;
11230;SDS011;5672;51.060;3.734;2022-08-19T02:10:18;17.90;;;16.03;;
11230;SDS011;5672;51.060;3.734;2022-08-19T02:12:45;21.97;;;17.20;;
11230;SDS011;5672;51.060;3.734;2022-08-19T02:15:11;18.10;;;15.43;;
11230;SDS011;5672;51.060;3.734;2022-08-19T02:17:37;21.30;;;17.20;;
11230;SDS011;5672;51.060;3.734;2022-08-19T02:20:04;19.23;;;15.77;;
11230;SDS011;5672;51.060;3.734;2022-08-19T02:22:31;19.30;;;15.67;;
11230;SDS011;5672;51.060;3.734;2022-08-19T02:24:57;16.30;;;14.37;;
11230;SDS011;5672;51.060;3.734;2022-08-19T02:27:23;19.63;;;15.60;;
11230;SDS011;5672;51.060;3.734;2022-08-19T02:29:50;16.80;;;14.90;;
11230;SDS011;5672;51.060;3.734;2022-08-19T02:32:16;18.03;;;15.47;;
11230;SDS011;5672;51.060;3.734;2022-08-19T02:34:44;18.07;;;14.30;;
11230;SDS011;5672;51.060;3.734;2022-08-19T02:37:10;19.87;;;15.43;;
11230;SDS011;5672;51.060;3.734;2022-08-19T02:39:56;20.00;;;16.63;;
11230;SDS011;5672;51.060;3.734;2022-08-19T02:42:22;16.70;;;13.77;;
11230;SDS011;5672;51.060;3.734;2022-08-19T02:44:48;22.13;;;15.17;;
11230;SDS011;5672;51.060;3.734;2022-08-19T02:47:14;18.17;;;15.20;;
11230;SDS011;5672;51.060;3.734;2022-08-19T02:49:41;16.13;;;14.43;;
11230;SDS011;5672;51.060;3.734;2022-08-19T02:52:07;17.73;;;15.63;;
11230;SDS011;5672;51.060;3.734;2022-08-19T02:54:33;19.40;;;15.20;;
11230;SDS011;5672;51.060;3.734;2022-08-19T02:56:59;18.70;;;14.80;;
11230;SDS011;5672;51.060;3.734;2022-08-19T02:59:25;18.07;;;14.83;;
11230;SDS011;5672;51.060;3.734;2022-08-19T03:01:51;16.17;;;14.03;;
11230;SDS011;5672;51.060;3.734;2022-08-19T03:04:17;16.90;;;15.10;;
11230;SDS011;5672;51.060;3.734;2022-08-19T03:06:45;17.10;;;14.77;;
11230;SDS011;5672;51.060;3.734;2022-08-19T03:09:11;20.87;;;15.07;;
11230;SDS011;5672;51.060;3.734;2022-08-19T03:11:38;19.13;;;15.80;;
11230;SDS011;5672;51.060;3.734;2022-08-19T03:14:04;16.97;;;15.20;;
11230;SDS011;5672;51.060;3.734;2022-08-19T03:16:34;15.67;;;13.20;;
11230;SDS011;5672;51.060;3.734;2022-08-19T03:19:01;16.40;;;14.07;;
11230;SDS011;5672;51.060;3.734;2022-08-19T03:21:31;16.03;;;13.87;;
11230;SDS011;5672;51.060;3.734;2022-08-19T03:24:00;18.23;;;13.57;;
11230;SDS011;5672;51.060;3.734;2022-08-19T03:26:26;16.13;;;12.87;;
11230;SDS011;5672;51.060;3.734;2022-08-19T03:28:52;16.63;;;14.17;;
11230;SDS011;5672;51.060;3.734;2022-08-19T03:31:19;15.37;;;13.43;;
11230;SDS011;5672;51.060;3.734;2022-08-19T03:33:47;16.73;;;13.17;;
11230;SDS011;5672;51.060;3.734;2022-08-19T03:36:19;15.40;;;12.73;;
11230;SDS011;5672;51.060;3.734;2022-08-19T03:38:48;14.00;;;12.53;;
11230;SDS011;5672;51.060;3.734;2022-08-19T03:41:16;13.90;;;11.43;;
11230;SDS011;5672;51.060;3.734;2022-08-19T03:43:43;13.33;;;11.57;;
11230;SDS011;5672;51.060;3.734;2022-08-19T03:46:12;16.47;;;11.13;;
11230;SDS011;5672;51.060;3.734;2022-08-19T03:48:40;14.77;;;11.40;;
11230;SDS011;5672;51.060;3.734;2022-08-19T03:51:06;13.03;;;11.27;;
11230;SDS011;5672;51.060;3.734;2022-08-19T03:53:33;12.17;;;10.87;;
11230;SDS011;5672;51.060;3.734;2022-08-19T03:56:00;11.73;;;9.90;;
11230;SDS011;5672;51.060;3.734;2022-08-19T03:58:27;13.67;;;10.63;;
11230;SDS011;5672;51.060;3.734;2022-08-19T04:00:57;15.23;;;10.93;;
11230;SDS011;5672;51.060;3.734;2022-08-19T04:03:23;12.67;;;10.83;;
11230;SDS011;5672;51.060;3.734;2022-08-19T04:05:50;13.10;;;10.40;;
11230;SDS011;5672;51.060;3.734;2022-08-19T04:08:16;12.57;;;9.97;;
11230;SDS011;5672;51.060;3.734;2022-08-19T04:10:45;14.23;;;9.70;;
11230;SDS011;5672;51.060;3.734;2022-08-19T04:13:11;13.47;;;10.30;;
11230;SDS011;5672;51.060;3.734;2022-08-19T04:15:41;13.73;;;9.53;;
11230;SDS011;5672;51.060;3.734;2022-08-19T04:18:08;13.73;;;9.83;;
11230;SDS011;5672;51.060;3.734;2022-08-19T04:20:38;12.83;;;9.70;;
11230;SDS011;5672;51.060;3.734;2022-08-19T04:23:05;10.77;;;9.33;;
11230;SDS011;5672;51.060;3.734;2022-08-19T04:25:35;11.03;;;9.70;;
11230;SDS011;5672;51.060;3.734;2022-08-19T04:28:01;10.97;;;9.27;;
11230;SDS011;5672;51.060;3.734;2022-08-19T04:30:27;13.80;;;9.87;;
11230;SDS011;5672;51.060;3.734;2022-08-19T04:32:53;13.13;;;9.73;;
11230;SDS011;5672;51.060;3.734;2022-08-19T04:35:19;10.90;;;9.73;;
11230;SDS011;5672;51.060;3.734;2022-08-19T04:37:45;14.83;;;9.90;;
11230;SDS011;5672;51.060;3.734;2022-08-19T04:40:11;12.17;;;9.80;;
11230;SDS011;5672;51.060;3.734;2022-08-19T04:42:56;11.47;;;9.53;;
11230;SDS011;5672;51.060;3.734;2022-08-19T04:45:23;13.40;;;9.83;;
11230;SDS011;5672;51.060;3.734;2022-08-19T04:47:49;9.60;;;8.50;;
11230;SDS011;5672;51.060;3.734;2022-08-19T04:50:15;12.10;;;9.77;;
11230;SDS011;5672;51.060;3.734;2022-08-19T04:52:41;11.20;;;8.63;;
11230;SDS011;5672;51.060;3.734;2022-08-19T04:55:08;11.13;;;7.83;;
11230;SDS011;5672;51.060;3.734;2022-08-19T04:57:35;10.27;;;8.90;;
11230;SDS011;5672;51.060;3.734;2022-08-19T05:00:05;12.00;;;8.50;;
11230;SDS011;5672;51.060;3.734;2022-08-19T05:02:31;10.37;;;8.60;;
11230;SDS011;5672;51.060;3.734;2022-08-19T05:04:58;11.10;;;8.53;;
11230;SDS011;5672;51.060;3.734;2022-08-19T05:07:25;12.33;;;9.20;;
11230;SDS011;5672;51.060;3.734;2022-08-19T05:09:51;11.17;;;8.93;;
11230;SDS011;5672;51.060;3.734;2022-08-19T05:12:17;14.07;;;9.70;;
11230;SDS011;5672;51.060;3.734;2022-08-19T05:14:44;14.27;;;9.30;;
11230;SDS011;5672;51.060;3.734;2022-08-19T05:17:11;15.73;;;9.37;;
11230;SDS011;5672;51.060;3.734;2022-08-19T05:19:37;13.90;;;9.63;;
11230;SDS011;5672;51.060;3.734;2022-08-19T05:22:22;10.03;;;8.77;;
11230;SDS011;5672;51.060;3.734;2022-08-19T05:24:59;11.30;;;8.37;;
11230;SDS011;5672;51.060;3.734;2022-08-19T05:27:26;15.30;;;8.93;;
11230;SDS011;5672;51.060;3.734;2022-08-19T05:29:52;17.83;;;9.17;;
11230;SDS011;5672;51.060;3.734;2022-08-19T05:32:18;9.90;;;8.23;;
11230;SDS011;5672;51.060;3.734;2022-08-19T05:34:44;14.43;;;9.17;;
11230;SDS011;5672;51.060;3.734;2022-08-19T05:37:10;12.53;;;8.97;;
11230;SDS011;5672;51.060;3.734;2022-08-19T05:39:36;11.87;;;8.20;;
11230;SDS011;5672;51.060;3.734;2022-08-19T05:42:04;10.37;;;8.10;;
11230;SDS011;5672;51.060;3.734;2022-08-19T05:44:35;13.13;;;9.53;;
11230;SDS011;5672;51.060;3.734;2022-08-19T05:47:02;14.97;;;9.67;;
11230;SDS011;5672;51.060;3.734;2022-08-19T05:49:29;13.43;;;8.80;;
11230;SDS011;5672;51.060;3.734;2022-08-19T05:51:56;11.93;;;10.00;;
11230;SDS011;5672;51.060;3.734;2022-08-19T05:54:22;13.23;;;9.80;;
11230;SDS011;5672;51.060;3.734;2022-08-19T05:56:50;13.43;;;9.90;;
11230;SDS011;5672;51.060;3.734;2022-08-19T05:59:16;18.60;;;10.70;;
11230;SDS011;5672;51.060;3.734;2022-08-19T06:01:43;15.70;;;10.77;;
11230;SDS011;5672;51.060;3.734;2022-08-19T06:04:10;12.93;;;10.40;;
11230;SDS011;5672;51.060;3.734;2022-08-19T06:06:38;14.07;;;9.97;;
11230;SDS011;5672;51.060;3.734;2022-08-19T06:09:05;13.90;;;9.97;;
11230;SDS011;5672;51.060;3.734;2022-08-19T06:11:35;14.10;;;9.47;;
11230;SDS011;5672;51.060;3.734;2022-08-19T06:14:03;14.90;;;10.07;;
11230;SDS011;5672;51.060;3.734;2022-08-19T06:16:29;12.53;;;9.80;;
11230;SDS011;5672;51.060;3.734;2022-08-19T06:18:59;12.93;;;10.50;;
11230;SDS011;5672;51.060;3.734;2022-08-19T06:21:26;14.40;;;10.67;;
11230;SDS011;5672;51.060;3.734;2022-08-19T06:23:53;11.57;;;9.50;;
11230;SDS011;5672;51.060;3.734;2022-08-19T06:26:20;15.50;;;10.47;;
11230;SDS011;5672;51.060;3.734;2022-08-19T06:28:47;12.10;;;10.03;;
11230;SDS011;5672;51.060;3.734;2022-08-19T06:31:17;12.23;;;10.30;;
11230;SDS011;5672;51.060;3.734;2022-08-19T06:33:45;11.07;;;9.60;;
11230;SDS011;5672;51.060;3.734;2022-08-19T06:38:43;10.57;;;9.43;;
11230;SDS011;5672;51.060;3.734;2022-08-19T06:41:10;10.47;;;9.23;;
11230;SDS011;5672;51.060;3.734;2022-08-19T06:43:36;10.07;;;8.90;;
11230;SDS011;5672;51.060;3.734;2022-08-19T06:46:02;10.67;;;8.97;;
11230;SDS011;5672;51.060;3.734;2022-08-19T06:48:29;10.63;;;9.07;;
11230;SDS011;5672;51.060;3.734;2022-08-19T06:50:55;10.10;;;8.80;;
11230;SDS011;5672;51.060;3.734;2022-08-19T06:53:21;10.10;;;8.43;;
11230;SDS011;5672;51.060;3.734;2022-08-19T06:55:47;9.47;;;8.03;;
11230;SDS011;5672;51.060;3.734;2022-08-19T06:58:15;12.03;;;8.27;;
11230;SDS011;5672;51.060;3.734;2022-08-19T07:00:41;9.53;;;7.70;;
11230;SDS011;5672;51.060;3.734;2022-08-19T07:03:07;8.80;;;7.90;;
11230;SDS011;5672;51.060;3.734;2022-08-19T07:05:37;8.43;;;7.17;;
11230;SDS011;5672;51.060;3.734;2022-08-19T07:08:03;8.77;;;7.90;;
11230;SDS011;5672;51.060;3.734;2022-08-19T07:10:30;9.30;;;7.77;;
11230;SDS011;5672;51.060;3.734;2022-08-19T07:12:57;8.87;;;8.07;;
11230;SDS011;5672;51.060;3.734;2022-08-19T07:15:23;9.07;;;8.17;;
11230;SDS011;5672;51.060;3.734;2022-08-19T07:17:49;9.73;;;8.17;;
11230;SDS011;5672;51.060;3.734;2022-08-19T07:20:16;9.47;;;7.70;;
11230;SDS011;5672;51.060;3.734;2022-08-19T07:22:42;8.43;;;7.63;;
11230;SDS011;5672;51.060;3.734;2022-08-19T07:25:10;8.67;;;6.73;;
11230;SDS011;5672;51.060;3.734;2022-08-19T07:27:38;9.60;;;7.20;;
11230;SDS011;5672;51.060;3.734;2022-08-19T07:30:04;9.83;;;7.93;;
11230;SDS011;5672;51.060;3.734;2022-08-19T07:32:30;11.47;;;8.33;;
11230;SDS011;5672;51.060;3.734;2022-08-19T07:34:56;8.63;;;7.70;;
11230;SDS011;5672;51.060;3.734;2022-08-19T07:37:23;8.03;;;7.23;;
11230;SDS011;5672;51.060;3.734;2022-08-19T07:39:51;9.30;;;8.40;;
11230;SDS011;5672;51.060;3.734;2022-08-19T07:42:17;9.53;;;7.87;;
11230;SDS011;5672;51.060;3.734;2022-08-19T07:44:45;9.30;;;8.40;;
11230;SDS011;5672;51.060;3.734;2022-08-19T07:47:12;9.93;;;8.93;;
11230;SDS011;5672;51.060;3.734;2022-08-19T07:49:40;11.30;;;9.53;;
11230;SDS011;5672;51.060;3.734;2022-08-19T07:52:07;11.03;;;8.57;;
11230;SDS011;5672;51.060;3.734;2022-08-19T07:54:34;10.07;;;8.67;;
11230;SDS011;5672;51.060;3.734;2022-08-19T07:57:01;10.97;;;9.87;;
11230;SDS011;5672;51.060;3.734;2022-08-19T07:59:27;12.87;;;10.33;;
11230;SDS011;5672;51.060;3.734;2022-08-19T08:01:53;15.50;;;10.20;;
11230;SDS011;5672;51.060;3.734;2022-08-19T08:04:19;10.60;;;9.33;;
11230;SDS011;5672;51.060;3.734;2022-08-19T08:07:05;12.27;;;10.57;;
11230;SDS011;5672;51.060;3.734;2022-08-19T08:09:49;10.80;;;9.70;;
11230;SDS011;5672;51.060;3.734;2022-08-19T08:12:19;12.80;;;9.57;;
11230;SDS011;5672;51.060;3.734;2022-08-19T08:14:48;11.10;;;9.30;;
11230;SDS011;5672;51.060;3.734;2022-08-19T08:17:16;10.80;;;9.80;;
11230;SDS011;5672;51.060;3.734;2022-08-19T08:19:43;14.50;;;9.80;;
11230;SDS011;5672;51.060;3.734;2022-08-19T08:22:09;10.47;;;8.07;;
11230;SDS011;5672;51.060;3.734;2022-08-19T08:27:38;9.83;;;8.83;;
11230;SDS011;5672;51.060;3.734;2022-08-19T08:30:05;9.40;;;8.47;;
11230;SDS011;5672;51.060;3.734;2022-08-19T08:32:34;9.77;;;8.77;;
11230;SDS011;5672;51.060;3.734;2022-08-19T08:35:00;9.60;;;8.60;;
11230;SDS011;5672;51.060;3.734;2022-08-19T08:37:26;12.43;;;10.07;;
11230;SDS011;5672;51.060;3.734;2022-08-19T08:39:52;13.13;;;10.00;;
11230;SDS011;5672;51.060;3.734;2022-08-19T08:42:32;10.30;;;9.20;;
11230;SDS011;5672;51.060;3.734;2022-08-19T08:45:04;12.90;;;10.63;;
11230;SDS011;5672;51.060;3.734;2022-08-19T08:47:34;11.97;;;9.50;;
11230;SDS011;5672;51.060;3.734;2022-08-19T08:50:03;11.07;;;10.03;;
11230;SDS011;5672;51.060;3.734;2022-08-19T08:52:31;12.20;;;9.87;;
11230;SDS011;5672;51.060;3.734;2022-08-19T08:55:05;11.47;;;10.23;;
11230;SDS011;5672;51.060;3.734;2022-08-19T08:57:49;11.23;;;10.07;;
11230;SDS011;5672;51.060;3.734;2022-08-19T09:00:24;10.80;;;9.27;;
11230;SDS011;5672;51.060;3.734;2022-08-19T09:02:51;9.90;;;9.10;;
11230;SDS011;5672;51.060;3.734;2022-08-19T09:05:19;9.83;;;8.83;;
11230;SDS011;5672;51.060;3.734;2022-08-19T09:10:28;10.80;;;9.03;;
11230;SDS011;5672;51.060;3.734;2022-08-19T09:13:02;11.07;;;8.23;;
11230;SDS011;5672;51.060;3.734;2022-08-19T09:15:33;8.80;;;8.00;;
11230;SDS011;5672;51.060;3.734;2022-08-19T09:18:01;9.20;;;8.20;;
11230;SDS011;5672;51.060;3.734;2022-08-19T09:20:28;8.33;;;7.63;;
11230;SDS011;5672;51.060;3.734;2022-08-19T09:22:55;8.40;;;7.60;;
11230;SDS011;5672;51.060;3.734;2022-08-19T09:25:22;8.73;;;7.63;;
11230;SDS011;5672;51.060;3.734;2022-08-19T09:27:49;7.70;;;7.00;;
11230;SDS011;5672;51.060;3.734;2022-08-19T09:30:18;9.10;;;6.90;;
11230;SDS011;5672;51.060;3.734;2022-08-19T09:32:46;8.93;;;6.10;;
11230;SDS011;5672;51.060;3.734;2022-08-19T09:35:12;7.70;;;5.70;;
11230;SDS011;5672;51.060;3.734;2022-08-19T09:37:39;6.13;;;5.30;;
11230;SDS011;5672;51.060;3.734;2022-08-19T09:40:05;5.37;;;4.97;;
11230;SDS011;5672;51.060;3.734;2022-08-19T09:42:31;6.00;;;5.50;;
11230;SDS011;5672;51.060;3.734;2022-08-19T09:44:58;5.00;;;4.70;;
11230;SDS011;5672;51.060;3.734;2022-08-19T09:47:24;5.07;;;4.30;;
11230;SDS011;5672;51.060;3.734;2022-08-19T09:49:51;4.40;;;4.10;;
11230;SDS011;5672;51.060;3.734;2022-08-19T09:52:17;4.50;;;4.07;;
11230;SDS011;5672;51.060;3.734;2022-08-19T09:54:43;3.40;;;3.20;;
11230;SDS011;5672;51.060;3.734;2022-08-19T09:57:09;3.43;;;3.23;;
11230;SDS011;5672;51.060;3.734;2022-08-19T09:59:35;4.20;;;3.50;;
11230;SDS011;5672;51.060;3.734;2022-08-19T10:02:01;3.50;;;3.20;;
11230;SDS011;5672;51.060;3.734;2022-08-19T10:04:27;4.83;;;3.47;;
11230;SDS011;5672;51.060;3.734;2022-08-19T10:07:14;3.77;;;3.40;;
11230;SDS011;5672;51.060;3.734;2022-08-19T10:09:40;3.17;;;2.97;;
11230;SDS011;5672;51.060;3.734;2022-08-19T10:12:06;6.73;;;3.10;;
11230;SDS011;5672;51.060;3.734;2022-08-19T10:14:32;3.30;;;3.00;;
11230;SDS011;5672;51.060;3.734;2022-08-19T10:16:59;3.27;;;3.07;;
11230;SDS011;5672;51.060;3.734;2022-08-19T10:19:25;3.60;;;3.30;;
11230;SDS011;5672;51.060;3.734;2022-08-19T10:21:54;12.70;;;8.47;;
11230;SDS011;5672;51.060;3.734;2022-08-19T10:24:21;18.73;;;11.23;;
11230;SDS011;5672;51.060;3.734;2022-08-19T10:26:49;19.43;;;12.33;;
11230;SDS011;5672;51.060;3.734;2022-08-19T10:29:15;25.43;;;14.27;;
11230;SDS011;5672;51.060;3.734;2022-08-19T10:31:41;18.63;;;11.93;;
11230;SDS011;5672;51.060;3.734;2022-08-19T10:34:07;17.10;;;10.73;;
11230;SDS011;5672;51.060;3.734;2022-08-19T10:36:35;29.27;;;19.13;;
11230;SDS011;5672;51.060;3.734;2022-08-19T10:39:03;14.43;;;9.73;;
11230;SDS011;5672;51.060;3.734;2022-08-19T10:41:31;15.00;;;10.57;;
11230;SDS011;5672;51.060;3.734;2022-08-19T10:43:58;17.33;;;10.40;;
11230;SDS011;5672;51.060;3.734;2022-08-19T10:46:25;14.70;;;8.73;;
11230;SDS011;5672;51.060;3.734;2022-08-19T10:48:52;28.43;;;15.70;;
11230;SDS011;5672;51.060;3.734;2022-08-19T10:51:18;16.73;;;11.07;;
11230;SDS011;5672;51.060;3.734;2022-08-19T10:54:03;15.37;;;10.20;;
11230;SDS011;5672;51.060;3.734;2022-08-19T10:56:29;15.17;;;9.70;;
11230;SDS011;5672;51.060;3.734;2022-08-19T10:59:15;12.33;;;9.40;;
11230;SDS011;5672;51.060;3.734;2022-08-19T11:01:42;10.47;;;8.03;;
11230;SDS011;5672;51.060;3.734;2022-08-19T11:04:08;16.33;;;10.43;;
11230;SDS011;5672;51.060;3.734;2022-08-19T11:06:36;11.17;;;9.27;;
11230;SDS011;5672;51.060;3.734;2022-08-19T11:09:03;7.57;;;6.80;;
11230;SDS011;5672;51.060;3.734;2022-08-19T11:11:30;11.57;;;7.67;;
11230;SDS011;5672;51.060;3.734;2022-08-19T11:13:57;6.20;;;5.60;;
11230;SDS011;5672;51.060;3.734;2022-08-19T11:16:25;6.50;;;5.90;;
11230;SDS011;5672;51.060;3.734;2022-08-19T11:18:56;6.30;;;5.60;;
11230;SDS011;5672;51.060;3.734;2022-08-19T11:21:27;6.13;;;5.53;;
11230;SDS011;5672;51.060;3.734;2022-08-19T11:23:57;6.33;;;5.80;;
11230;SDS011;5672;51.060;3.734;2022-08-19T11:26:23;5.47;;;5.10;;
11230;SDS011;5672;51.060;3.734;2022-08-19T11:28:50;6.10;;;5.30;;
11230;SDS011;5672;51.060;3.734;2022-08-19T11:31:20;5.60;;;5.10;;
11230;SDS011;5672;51.060;3.734;2022-08-19T11:33:46;4.70;;;4.30;;
11230;SDS011;5672;51.060;3.734;2022-08-19T11:36:15;4.13;;;3.80;;
11230;SDS011;5672;51.060;3.734;2022-08-19T11:38:41;3.50;;;3.30;;
11230;SDS011;5672;51.060;3.734;2022-08-19T11:41:07;4.63;;;3.07;;
11230;SDS011;5672;51.060;3.734;2022-08-19T11:43:34;4.47;;;3.00;;
11230;SDS011;5672;51.060;3.734;2022-08-19T11:46:03;3.20;;;2.90;;
11230;SDS011;5672;51.060;3.734;2022-08-19T11:48:30;3.73;;;2.90;;
11230;SDS011;5672;51.060;3.734;2022-08-19T11:50:56;3.20;;;2.90;;
11230;SDS011;5672;51.060;3.734;2022-08-19T11:53:22;2.90;;;2.70;;
11230;SDS011;5672;51.060;3.734;2022-08-19T11:55:49;3.80;;;2.53;;
11230;SDS011;5672;51.060;3.734;2022-08-19T11:58:16;2.30;;;2.10;;
11230;SDS011;5672;51.060;3.734;2022-08-19T12:00:42;3.03;;;1.80;;
11230;SDS011;5672;51.060;3.734;2022-08-19T12:03:10;2.20;;;2.10;;
11230;SDS011;5672;51.060;3.734;2022-08-19T12:05:36;1.70;;;1.60;;
11230;SDS011;5672;51.060;3.734;2022-08-19T12:08:03;2.40;;;2.00;;
11230;SDS011;5672;51.060;3.734;2022-08-19T12:10:29;2.37;;;2.17;;
11230;SDS011;5672;51.060;3.734;2022-08-19T12:12:55;1.80;;;1.70;;
11230;SDS011;5672;51.060;3.734;2022-08-19T12:15:21;4.03;;;2.10;;
11230;SDS011;5672;51.060;3.734;2022-08-19T12:17:47;2.57;;;2.40;;
11230;SDS011;5672;51.060;3.734;2022-08-19T12:20:13;2.67;;;2.47;;
11230;SDS011;5672;51.060;3.734;2022-08-19T12:22:40;2.93;;;2.73;;
11230;SDS011;5672;51.060;3.734;2022-08-19T12:25:07;3.13;;;2.77;;
11230;SDS011;5672;51.060;3.734;2022-08-19T12:27:33;2.70;;;2.50;;
11230;SDS011;5672;51.060;3.734;2022-08-19T12:30:00;3.30;;;2.50;;
11230;SDS011;5672;51.060;3.734;2022-08-19T12:32:26;2.60;;;2.50;;
11230;SDS011;5672;51.060;3.734;2022-08-19T12:34:53;4.87;;;4.37;;
11230;SDS011;5672;51.060;3.734;2022-08-19T12:37:19;3.83;;;3.53;;
11230;SDS011;5672;51.060;3.734;2022-08-19T12:39:45;3.83;;;3.30;;
11230;SDS011;5672;51.060;3.734;2022-08-19T12:42:12;3.20;;;2.90;;
11230;SDS011;5672;51.060;3.734;2022-08-19T12:44:39;3.90;;;3.07;;
11230;SDS011;5672;51.060;3.734;2022-08-19T12:47:05;2.60;;;2.40;;
11230;SDS011;5672;51.060;3.734;2022-08-19T12:49:32;2.73;;;2.53;;
11230;SDS011;5672;51.060;3.734;2022-08-19T12:52:01;1.93;;;1.83;;
11230;SDS011;5672;51.060;3.734;2022-08-19T12:54:27;2.30;;;2.20;;
11230;SDS011;5672;51.060;3.734;2022-08-19T12:56:55;3.30;;;2.80;;
11230;SDS011;5672;51.060;3.734;2022-08-19T12:59:21;2.43;;;2.23;;
11230;SDS011;5672;51.060;3.734;2022-08-19T13:01:47;1.70;;;1.70;;
11230;SDS011;5672;51.060;3.734;2022-08-19T13:04:13;3.17;;;2.17;;
11230;SDS011;5672;51.060;3.734;2022-08-19T13:06:41;2.70;;;2.50;;
11230;SDS011;5672;51.060;3.734;2022-08-19T13:09:07;2.50;;;2.30;;
11230;SDS011;5672;51.060;3.734;2022-08-19T13:11:33;2.30;;;2.10;;
11230;SDS011;5672;51.060;3.734;2022-08-19T13:14:00;2.30;;;2.00;;
11230;SDS011;5672;51.060;3.734;2022-08-19T13:16:26;2.10;;;2.00;;
11230;SDS011;5672;51.060;3.734;2022-08-19T13:18:53;2.53;;;2.00;;
11230;SDS011;5672;51.060;3.734;2022-08-19T13:21:21;2.60;;;2.00;;
11230;SDS011;5672;51.060;3.734;2022-08-19T13:23:48;2.40;;;2.03;;
11230;SDS011;5672;51.060;3.734;2022-08-19T13:26:14;6.23;;;2.33;;
11230;SDS011;5672;51.060;3.734;2022-08-19T13:28:40;7.13;;;3.00;;
11230;SDS011;5672;51.060;3.734;2022-08-19T13:31:26;7.77;;;3.27;;
11230;SDS011;5672;51.060;3.734;2022-08-19T13:34:11;7.97;;;3.43;;
11230;SDS011;5672;51.060;3.734;2022-08-19T13:36:38;6.63;;;2.83;;
11230;SDS011;5672;51.060;3.734;2022-08-19T13:39:05;6.10;;;2.97;;
11230;SDS011;5672;51.060;3.734;2022-08-19T13:41:32;6.37;;;2.90;;
11230;SDS011;5672;51.060;3.734;2022-08-19T13:43:59;2.73;;;2.30;;
11230;SDS011;5672;51.060;3.734;2022-08-19T13:46:26;2.77;;;2.10;;
11230;SDS011;5672;51.060;3.734;2022-08-19T13:48:54;4.67;;;1.87;;
11230;SDS011;5672;51.060;3.734;2022-08-19T13:51:21;2.53;;;1.70;;
11230;SDS011;5672;51.060;3.734;2022-08-19T13:53:47;3.17;;;1.80;;
11230;SDS011;5672;51.060;3.734;2022-08-19T13:56:17;2.77;;;1.90;;
11230;SDS011;5672;51.060;3.734;2022-08-19T13:58:45;1.60;;;1.60;;
11230;SDS011;5672;51.060;3.734;2022-08-19T14:01:11;2.33;;;2.00;;
11230;SDS011;5672;51.060;3.734;2022-08-19T14:03:37;2.67;;;2.40;;
11230;SDS011;5672;51.060;3.734;2022-08-19T14:06:03;2.70;;;2.50;;
11230;SDS011;5672;51.060;3.734;2022-08-19T14:08:30;2.87;;;2.30;;
11230;SDS011;5672;51.060;3.734;2022-08-19T14:10:57;2.93;;;2.40;;
11230;SDS011;5672;51.060;3.734;2022-08-19T14:13:23;2.97;;;2.73;;
11230;SDS011;5672;51.060;3.734;2022-08-19T14:15:49;3.17;;;2.87;;
11230;SDS011;5672;51.060;3.734;2022-08-19T14:18:16;3.80;;;3.53;;
11230;SDS011;5672;51.060;3.734;2022-08-19T14:20:42;3.40;;;3.20;;
11230;SDS011;5672;51.060;3.734;2022-08-19T14:23:09;4.80;;;4.30;;
11230;SDS011;5672;51.060;3.734;2022-08-19T14:25:37;6.17;;;4.70;;
11230;SDS011;5672;51.060;3.734;2022-08-19T14:28:03;5.50;;;5.00;;
11230;SDS011;5672;51.060;3.734;2022-08-19T14:30:30;5.57;;;5.03;;
11230;SDS011;5672;51.060;3.734;2022-08-19T14:32:57;6.20;;;4.80;;
11230;SDS011;5672;51.060;3.734;2022-08-19T14:35:23;6.27;;;4.77;;
11230;SDS011;5672;51.060;3.734;2022-08-19T14:37:50;4.90;;;4.40;;
11230;SDS011;5672;51.060;3.734;2022-08-19T14:40:20;6.87;;;4.97;;
11230;SDS011;5672;51.060;3.734;2022-08-19T14:42:50;6.53;;;5.40;;
11230;SDS011;5672;51.060;3.734;2022-08-19T14:45:16;6.80;;;5.37;;
11230;SDS011;5672;51.060;3.734;2022-08-19T14:47:42;6.00;;;5.50;;
11230;SDS011;5672;51.060;3.734;2022-08-19T14:50:09;7.73;;;6.73;;
11230;SDS011;5672;51.060;3.734;2022-08-19T14:52:35;7.60;;;6.90;;
11230;SDS011;5672;51.060;3.734;2022-08-19T14:55:02;10.07;;;7.20;;
11230;SDS011;5672;51.060;3.734;2022-08-19T14:57:28;8.93;;;7.00;;
11230;SDS011;5672;51.060;3.734;2022-08-19T14:59:55;11.10;;;7.17;;